Time;durP1;ratioP1;P1;durP2;ratioP2;P2;SDS_P1;SDS_P2;PMS_P1;PMS_P2;Temp;Humidity;BMP_temperature;BMP_pressure;BME280_temperature;BME280_humidity;BME280_pressure;Samples;Min_cycle;Max_cycle;Signal;HPM_P1;HPM_P2
2022/03/07 00:01:49;;;;;;;34.10;17.08;;;7.20;46.50;;;;;;5067011;28;20471;-79
2022/03/07 00:04:17;;;;;;;32.90;17.77;;;7.10;46.90;;;;;;5061565;28;20357;-80
2022/03/07 00:06:43;;;;;;;29.98;16.05;;;7.10;46.70;;;;;;5055022;28;20071;-79
2022/03/07 00:09:09;;;;;;;31.13;16.60;;;7.00;46.90;;;;;;5057724;28;20020;-81
2022/03/07 00:11:35;;;;;;;37.63;17.20;;;6.80;47.00;;;;;;5067165;28;20415;-79
2022/03/07 00:14:02;;;;;;;32.08;16.38;;;6.50;47.80;;;;;;5054762;28;20034;-80
2022/03/07 00:16:28;;;;;;;30.48;17.20;;;6.70;47.60;;;;;;5054748;28;20123;-79
2022/03/07 00:18:54;;;;;;;36.22;18.05;;;6.60;47.30;;;;;;5069492;28;20446;-78
2022/03/07 00:21:20;;;;;;;31.95;16.73;;;6.50;48.10;;;;;;5066695;28;20507;-81
2022/03/07 00:23:46;;;;;;;31.33;17.27;;;6.90;47.40;;;;;;5054986;28;20522;-81
2022/03/07 00:26:12;;;;;;;31.20;17.02;;;6.90;47.10;;;;;;5067283;28;20036;-78
2022/03/07 00:28:38;;;;;;;33.00;17.55;;;6.90;47.00;;;;;;5062098;28;20142;-81
2022/03/07 00:31:05;;;;;;;30.83;16.60;;;6.90;46.70;;;;;;5074470;28;20037;-80
2022/03/07 00:33:31;;;;;;;29.33;16.08;;;7.00;46.90;;;;;;5068129;28;20076;-81
2022/03/07 00:35:57;;;;;;;31.13;17.40;;;7.20;46.50;;;;;;5054946;28;20059;-81
2022/03/07 00:38:23;;;;;;;33.50;18.08;;;7.40;45.80;;;;;;5055041;28;20032;-80
2022/03/07 00:40:49;;;;;;;31.92;16.65;;;7.60;46.20;;;;;;5054997;28;20498;-80
2022/03/07 00:43:15;;;;;;;33.80;16.90;;;7.50;45.60;;;;;;5053682;28;20021;-81
2022/03/07 00:45:40;;;;;;;32.60;16.88;;;7.30;46.50;;;;;;5059885;28;20020;-81
2022/03/07 00:48:06;;;;;;;34.20;18.48;;;7.10;46.70;;;;;;5073456;28;20540;-81
2022/03/07 00:50:32;;;;;;;32.30;17.65;;;6.30;47.70;;;;;;5067883;28;20521;-81
2022/03/07 00:52:58;;;;;;;32.83;16.85;;;5.70;49.20;;;;;;5059989;28;20055;-81
2022/03/07 00:55:24;;;;;;;36.03;17.67;;;5.30;50.00;;;;;;5072731;28;20082;-82
2022/03/07 00:57:50;;;;;;;32.30;18.52;;;5.40;50.20;;;;;;5071891;28;20025;-82
2022/03/07 01:00:16;;;;;;;34.45;17.65;;;5.40;50.10;;;;;;5072797;28;20028;-82
2022/03/07 01:02:42;;;;;;;33.85;17.80;;;5.50;49.90;;;;;;5064761;28;20033;-83
2022/03/07 01:05:08;;;;;;;34.80;17.48;;;5.80;49.10;;;;;;5073076;28;20422;-82
2022/03/07 01:07:34;;;;;;;35.50;18.48;;;6.00;48.80;;;;;;5073433;28;20036;-83
2022/03/07 01:10:01;;;;;;;34.08;18.20;;;5.80;49.00;;;;;;5067800;28;20025;-83
2022/03/07 01:12:26;;;;;;;31.85;17.15;;;6.10;48.60;;;;;;5066149;28;20105;-81
2022/03/07 01:14:52;;;;;;;35.17;18.00;;;6.30;47.90;;;;;;5073776;28;20024;-83
2022/03/07 01:17:18;;;;;;;33.03;16.70;;;6.60;47.20;;;;;;5058243;28;20384;-81
2022/03/07 01:19:43;;;;;;;35.45;17.92;;;6.60;47.10;;;;;;5061391;28;20475;-82
2022/03/07 01:22:09;;;;;;;33.50;17.70;;;6.80;47.50;;;;;;5064706;28;20035;-81
2022/03/07 01:24:36;;;;;;;31.67;16.90;;;6.80;46.70;;;;;;5053608;28;20032;-82
2022/03/07 01:27:03;;;;;;;33.92;16.95;;;6.80;46.90;;;;;;5054623;28;20376;-81
2022/03/07 01:29:29;;;;;;;32.03;16.08;;;6.60;46.90;;;;;;5060693;28;20089;-83
2022/03/07 01:31:54;;;;;;;32.47;17.95;;;6.60;47.20;;;;;;5063247;28;20033;-83
2022/03/07 01:34:20;;;;;;;31.63;17.02;;;6.60;47.30;;;;;;5053946;28;20060;-83
2022/03/07 01:36:46;;;;;;;31.42;16.83;;;6.30;47.80;;;;;;5052857;28;20029;-82
2022/03/07 01:39:11;;;;;;;36.30;17.77;;;6.20;47.90;;;;;;5069557;28;20025;-82
2022/03/07 01:41:37;;;;;;;33.08;16.40;;;6.10;48.00;;;;;;5052790;28;20017;-82
2022/03/07 01:44:03;;;;;;;32.95;17.75;;;6.00;48.20;;;;;;5052671;28;20029;-82
2022/03/07 01:46:32;;;;;;;34.80;17.23;;;5.90;48.30;;;;;;5064600;28;20025;-83
2022/03/07 01:48:57;;;;;;;32.90;17.08;;;5.90;48.40;;;;;;5069072;28;20017;-83
2022/03/07 01:51:23;;;;;;;30.02;16.42;;;5.80;48.60;;;;;;5056805;28;20115;-83
2022/03/07 01:53:49;;;;;;;31.95;16.63;;;6.00;48.30;;;;;;5052397;28;20079;-81
2022/03/07 01:56:16;;;;;;;32.42;17.88;;;5.70;49.20;;;;;;5054655;28;20049;-82
2022/03/07 01:58:42;;;;;;;33.80;17.20;;;5.80;48.50;;;;;;5055236;28;20039;-82
2022/03/07 02:01:09;;;;;;;32.17;16.88;;;5.60;49.00;;;;;;5053697;28;20031;-83
2022/03/07 02:03:35;;;;;;;34.70;17.33;;;5.20;49.50;;;;;;5069103;28;20031;-83
2022/03/07 02:06:02;;;;;;;36.42;18.42;;;4.80;50.50;;;;;;5070839;28;20107;-82
2022/03/07 02:08:29;;;;;;;31.70;16.63;;;4.80;50.90;;;;;;5072721;28;20027;-83
2022/03/07 02:10:54;;;;;;;34.35;17.30;;;4.90;50.50;;;;;;5072564;28;20036;-83
2022/03/07 02:13:21;;;;;;;36.88;18.25;;;5.00;50.30;;;;;;5071754;28;20094;-81
2022/03/07 02:15:56;;;;;;;33.63;17.15;;;5.10;50.00;;;;;;5052152;28;20060;-83
2022/03/07 02:18:22;;;;;;;33.83;17.15;;;5.10;49.80;;;;;;5052550;28;20423;-83
2022/03/07 02:20:55;;;;;;;33.40;17.05;;;5.10;49.90;;;;;;5053482;28;20051;-83
2022/03/07 02:23:21;;;;;;;35.45;17.58;;;4.80;50.80;;;;;;5053509;28;20029;-83
2022/03/07 02:25:47;;;;;;;32.95;17.58;;;5.00;50.20;;;;;;5052697;28;20028;-83
2022/03/07 02:28:15;;;;;;;33.15;17.88;;;5.20;49.70;;;;;;5052483;28;20224;-83
2022/03/07 02:30:41;;;;;;;33.13;16.67;;;5.00;50.10;;;;;;5068447;28;20502;-82
2022/03/07 02:33:10;;;;;;;34.60;17.75;;;4.90;50.30;;;;;;5052314;28;20037;-82
2022/03/07 02:35:36;;;;;;;32.05;17.23;;;4.70;50.70;;;;;;5065725;28;20053;-83
2022/03/07 02:38:02;;;;;;;37.38;17.45;;;4.60;50.90;;;;;;5077313;28;20079;-82
2022/03/07 02:40:28;;;;;;;30.60;16.67;;;4.40;51.30;;;;;;5075953;28;20025;-83
2022/03/07 02:42:53;;;;;;;34.22;16.65;;;4.60;51.00;;;;;;5075437;28;20032;-83
2022/03/07 02:45:19;;;;;;;30.58;16.30;;;4.80;50.30;;;;;;5069389;28;20028;-83
2022/03/07 02:47:44;;;;;;;34.00;18.17;;;5.00;50.20;;;;;;5069329;28;20383;-82
2022/03/07 02:50:10;;;;;;;33.97;16.42;;;5.00;49.80;;;;;;5075732;28;20139;-83
2022/03/07 02:52:36;;;;;;;34.33;16.77;;;5.10;49.70;;;;;;5075583;28;20040;-83
2022/03/07 02:55:02;;;;;;;32.47;17.33;;;5.20;49.50;;;;;;5071949;28;20024;-83
2022/03/07 02:57:27;;;;;;;35.08;17.77;;;5.20;49.70;;;;;;5055571;28;20025;-83
2022/03/07 02:59:53;;;;;;;34.42;17.52;;;5.10;49.40;;;;;;5071051;28;20442;-83
2022/03/07 03:02:21;;;;;;;32.63;17.48;;;4.90;49.60;;;;;;5073526;28;20032;-83
2022/03/07 03:04:46;;;;;;;34.38;17.85;;;4.70;50.20;;;;;;5062236;28;20113;-81
2022/03/07 03:07:12;;;;;;;32.35;17.10;;;4.60;50.60;;;;;;5059911;28;20056;-84
2022/03/07 03:09:39;;;;;;;34.75;17.23;;;4.80;50.20;;;;;;5055478;28;20040;-84
2022/03/07 03:12:05;;;;;;;33.88;18.48;;;5.00;49.80;;;;;;5069495;28;20058;-83
2022/03/07 03:14:30;;;;;;;32.83;17.23;;;5.10;49.70;;;;;;5074997;28;20032;-84
2022/03/07 03:16:56;;;;;;;33.33;17.67;;;5.30;49.40;;;;;;5056716;28;20036;-82
2022/03/07 03:19:22;;;;;;;36.33;18.35;;;5.60;48.80;;;;;;5059986;28;20025;-83
2022/03/07 03:21:48;;;;;;;36.55;18.27;;;5.40;48.90;;;;;;5075780;28;20114;-83
2022/03/07 03:24:14;;;;;;;37.88;18.27;;;5.40;49.30;;;;;;5075074;28;20060;-82
2022/03/07 03:26:40;;;;;;;33.22;16.45;;;5.40;49.10;;;;;;5062375;28;20029;-83
2022/03/07 03:29:05;;;;;;;34.20;17.63;;;5.50;49.00;;;;;;5071689;28;20047;-83
2022/03/07 03:31:31;;;;;;;36.33;19.08;;;5.30;49.00;;;;;;5058391;28;20025;-84
2022/03/07 03:33:57;;;;;;;33.78;17.15;;;5.40;49.30;;;;;;5071854;28;20120;-85
2022/03/07 03:36:29;;;;;;;35.15;17.65;;;5.30;49.50;;;;;;5056367;28;20059;-83
2022/03/07 03:38:54;;;;;;;34.30;17.75;;;5.40;49.30;;;;;;5071629;28;20025;-84
2022/03/07 03:41:20;;;;;;;36.10;18.58;;;5.20;49.50;;;;;;5055395;28;20024;-84
2022/03/07 03:43:45;;;;;;;35.45;18.88;;;5.10;49.80;;;;;;5074647;28;20467;-83
2022/03/07 03:46:11;;;;;;;37.88;19.05;;;5.00;49.80;;;;;;5074646;28;20020;-84
2022/03/07 03:48:37;;;;;;;37.78;18.45;;;5.10;49.90;;;;;;5067769;28;20021;-83
2022/03/07 03:51:02;;;;;;;35.03;16.80;;;5.00;49.80;;;;;;5054401;28;20053;-83
2022/03/07 03:53:28;;;;;;;36.28;18.75;;;4.90;50.10;;;;;;5055857;28;20033;-83
2022/03/07 03:55:54;;;;;;;35.75;18.73;;;4.80;50.50;;;;;;5063112;28;20025;-83
2022/03/07 03:58:20;;;;;;;33.55;17.65;;;4.40;51.10;;;;;;5071727;28;20418;-84
2022/03/07 04:00:45;;;;;;;33.92;18.08;;;4.20;51.70;;;;;;5056660;28;20483;-84
2022/03/07 04:03:11;;;;;;;37.65;18.55;;;4.10;52.20;;;;;;5057153;28;20031;-83
2022/03/07 04:05:36;;;;;;;37.70;18.80;;;4.00;52.80;;;;;;5062041;28;20082;-84
2022/03/07 04:08:02;;;;;;;34.00;18.60;;;3.80;52.60;;;;;;5074688;28;20039;-84
2022/03/07 04:10:28;;;;;;;37.92;18.25;;;3.70;52.80;;;;;;5073887;28;20024;-84
2022/03/07 04:12:53;;;;;;;35.33;18.08;;;3.70;53.20;;;;;;5074127;28;20045;-84
2022/03/07 04:15:19;;;;;;;39.97;19.15;;;3.80;53.20;;;;;;5066976;28;20051;-84
2022/03/07 04:17:45;;;;;;;41.25;19.27;;;3.90;52.70;;;;;;5075581;28;20533;-84
2022/03/07 04:20:13;;;;;;;37.58;18.65;;;4.00;52.60;;;;;;5069308;28;20028;-83
2022/03/07 04:22:39;;;;;;;37.17;18.80;;;4.40;51.90;;;;;;5071258;28;20039;-84
2022/03/07 04:25:06;;;;;;;38.58;18.95;;;4.50;51.10;;;;;;5058850;28;20017;-83
2022/03/07 04:27:32;;;;;;;36.20;18.67;;;4.30;51.40;;;;;;5054348;28;20025;-84
2022/03/07 04:29:58;;;;;;;40.00;19.63;;;4.20;52.10;;;;;;5054416;28;20029;-84
2022/03/07 04:32:24;;;;;;;38.05;18.92;;;4.10;52.20;;;;;;5072424;28;20037;-84
2022/03/07 04:34:50;;;;;;;38.45;19.15;;;3.90;52.60;;;;;;5067642;28;20082;-85
2022/03/07 04:37:16;;;;;;;36.83;19.15;;;3.70;53.00;;;;;;5071669;28;20029;-85
2022/03/07 04:39:42;;;;;;;40.35;19.73;;;3.90;52.70;;;;;;5067036;28;20051;-85
2022/03/07 04:42:07;;;;;;;37.05;19.15;;;4.10;52.30;;;;;;5062681;28;20395;-85
2022/03/07 04:44:33;;;;;;;38.50;19.40;;;4.50;51.50;;;;;;5071369;28;20109;-84
2022/03/07 04:46:59;;;;;;;38.95;19.40;;;4.70;51.10;;;;;;5067564;28;20402;-85
2022/03/07 04:49:24;;;;;;;36.50;19.35;;;5.20;50.00;;;;;;5072894;28;20020;-85
2022/03/07 04:51:50;;;;;;;38.42;19.02;;;5.40;49.20;;;;;;5063043;28;20029;-84
2022/03/07 04:54:16;;;;;;;37.75;19.58;;;5.20;49.50;;;;;;5058607;28;20521;-84
2022/03/07 04:56:43;;;;;;;35.50;18.20;;;5.30;49.70;;;;;;5066662;28;20048;-84
2022/03/07 04:59:12;;;;;;;34.80;18.52;;;5.60;49.30;;;;;;5060493;28;20098;-84
2022/03/07 05:01:38;;;;;;;37.72;18.77;;;5.40;49.30;;;;;;5053491;28;20021;-86
2022/03/07 05:04:04;;;;;;;43.75;19.58;;;5.40;49.20;;;;;;5065270;28;20125;-86
2022/03/07 05:06:29;;;;;;;40.00;19.33;;;5.50;49.10;;;;;;5084962;28;20075;-84
2022/03/07 05:08:55;;;;;;;41.40;19.73;;;5.30;49.50;;;;;;5069162;28;20033;-85
2022/03/07 05:11:21;;;;;;;39.97;19.60;;;5.00;49.80;;;;;;5068518;28;20028;-85
2022/03/07 05:13:47;;;;;;;37.60;18.52;;;4.80;50.50;;;;;;5079599;28;20375;-87
2022/03/07 05:16:12;;;;;;;35.85;18.38;;;4.70;50.60;;;;;;5105821;27;20035;-87
2022/03/07 05:18:38;;;;;;;37.72;18.83;;;4.60;50.90;;;;;;5113197;28;20032;-85
2022/03/07 05:21:04;;;;;;;39.63;19.88;;;4.40;51.00;;;;;;5095474;28;20016;-87
2022/03/07 05:23:30;;;;;;;36.83;19.02;;;4.20;51.50;;;;;;5094851;28;20027;-87
2022/03/07 05:25:56;;;;;;;40.70;19.27;;;4.10;51.80;;;;;;5095109;28;20462;-86
2022/03/07 05:28:22;;;;;;;36.92;18.88;;;4.10;51.60;;;;;;5095699;28;20047;-84
2022/03/07 05:30:48;;;;;;;37.17;19.33;;;3.90;52.20;;;;;;5095284;28;20027;-87
2022/03/07 05:33:13;;;;;;;39.38;19.33;;;4.00;52.60;;;;;;5095300;28;20035;-86
2022/03/07 05:35:39;;;;;;;37.25;18.17;;;4.10;52.10;;;;;;5095089;28;20027;-86
2022/03/07 05:38:17;;;;;;;37.17;18.20;;;4.00;51.80;;;;;;5095073;28;20378;-85
2022/03/07 05:40:43;;;;;;;35.97;19.38;;;4.10;52.10;;;;;;5080043;28;20027;-86
2022/03/07 05:43:09;;;;;;;38.50;19.65;;;4.40;51.40;;;;;;5095377;28;20023;-89
2022/03/07 05:45:35;;;;;;;40.40;19.42;;;4.60;50.80;;;;;;5095263;28;20030;-86
2022/03/07 05:48:00;;;;;;;37.80;19.13;;;4.60;50.70;;;;;;5094836;28;20390;-83
2022/03/07 05:50:26;;;;;;;39.85;19.40;;;4.70;51.00;;;;;;5096011;28;20069;-87
2022/03/07 05:52:52;;;;;;;39.08;19.50;;;4.60;51.00;;;;;;5114476;28;20106;-84
2022/03/07 05:55:18;;;;;;;36.83;19.00;;;4.70;50.80;;;;;;5096063;28;20049;-88
2022/03/07 05:57:43;;;;;;;37.50;19.70;;;4.40;51.30;;;;;;5096215;28;20035;-86
2022/03/07 06:00:11;;;;;;;55.47;26.60;;;4.50;51.80;;;;;;5095888;28;20031;-87
2022/03/07 06:02:37;;;;;;;42.53;20.67;;;4.90;50.70;;;;;;5096711;28;20024;-87
2022/03/07 06:05:03;;;;;;;36.13;19.73;;;5.00;50.50;;;;;;5096727;28;20118;-88
2022/03/07 06:07:29;;;;;;;40.00;20.98;;;5.20;50.30;;;;;;5095248;28;20024;-84
2022/03/07 06:09:55;;;;;;;36.25;19.08;;;5.40;50.10;;;;;;5095703;28;20026;-86
2022/03/07 06:12:21;;;;;;;43.25;20.25;;;5.60;49.80;;;;;;5096167;28;20031;-86
2022/03/07 06:14:47;;;;;;;41.95;21.00;;;5.60;49.60;;;;;;5096064;28;20027;-83
2022/03/07 06:17:12;;;;;;;43.67;21.88;;;5.90;49.40;;;;;;5096428;28;20101;-84
2022/03/07 06:19:39;;;;;;;41.97;20.52;;;6.00;48.90;;;;;;5096695;28;20024;-86
2022/03/07 06:22:05;;;;;;;38.35;19.48;;;6.20;48.50;;;;;;5096583;28;20028;-85
2022/03/07 06:24:34;;;;;;;40.80;20.05;;;5.80;48.90;;;;;;5096295;28;20031;-86
2022/03/07 06:27:06;;;;;;;39.47;20.33;;;5.70;49.50;;;;;;5096505;28;20030;-86
2022/03/07 06:29:32;;;;;;;38.90;20.00;;;5.70;49.80;;;;;;5096394;28;20048;-86
2022/03/07 06:32:04;;;;;;;40.25;20.70;;;6.00;49.30;;;;;;5096068;28;20066;-88
2022/03/07 06:34:31;;;;;;;37.70;19.40;;;6.10;48.90;;;;;;5096022;28;20023;-87
2022/03/07 06:36:57;;;;;;;39.28;19.48;;;6.00;49.00;;;;;;5095852;28;20420;-88
2022/03/07 06:39:25;;;;;;;37.78;19.85;;;6.00;49.00;;;;;;5096140;28;20485;-88
2022/03/07 06:41:51;;;;;;;39.75;20.38;;;6.40;48.80;;;;;;5096282;28;20050;-86
2022/03/07 06:44:17;;;;;;;41.58;20.55;;;6.70;48.50;;;;;;5096146;28;20051;-87
2022/03/07 06:46:43;;;;;;;40.95;21.02;;;6.70;48.70;;;;;;5095876;28;20116;-88
2022/03/07 06:49:33;;;;;;;38.15;20.20;;;7.00;48.60;;;;;;5095635;28;20015;-87
2022/03/07 06:51:59;;;;;;;40.65;21.52;;;7.40;47.30;;;;;;5094340;28;20031;-87
2022/03/07 06:54:25;;;;;;;39.90;21.13;;;7.30;47.20;;;;;;5094322;28;20028;-87
2022/03/07 06:56:51;;;;;;;43.55;21.67;;;7.50;47.10;;;;;;5093386;28;20024;-86
2022/03/07 06:59:16;;;;;;;38.85;19.95;;;7.50;47.00;;;;;;5094136;28;20024;-85
2022/03/07 07:01:42;;;;;;;39.42;20.80;;;7.50;46.50;;;;;;5093922;28;20100;-84
2022/03/07 07:04:08;;;;;;;38.10;20.73;;;7.60;47.00;;;;;;5094221;28;20031;-84
2022/03/07 07:06:33;;;;;;;41.22;21.88;;;7.70;46.90;;;;;;5095488;28;20043;-84
2022/03/07 07:08:59;;;;;;;37.92;19.77;;;8.00;46.40;;;;;;5095391;28;20027;-84
2022/03/07 07:11:25;;;;;;;48.97;24.52;;;8.30;45.80;;;;;;5095117;28;20023;-83
2022/03/07 07:13:51;;;;;;;52.65;24.63;;;8.40;45.20;;;;;;5095257;28;20058;-84
2022/03/07 07:16:17;;;;;;;40.38;21.02;;;8.00;46.00;;;;;;5095312;28;20149;-82
2022/03/07 07:18:42;;;;;;;41.55;22.25;;;8.20;45.70;;;;;;5095136;28;20024;-81
2022/03/07 07:21:08;;;;;;;34.03;19.75;;;8.40;45.70;;;;;;5098185;28;20027;-82
2022/03/07 07:23:35;;;;;;;42.00;21.95;;;8.00;46.30;;;;;;5099130;28;20028;-83
2022/03/07 07:26:01;;;;;;;36.92;19.95;;;8.00;46.20;;;;;;5099109;28;20123;-83
2022/03/07 07:28:26;;;;;;;37.97;20.52;;;8.00;46.50;;;;;;5098746;28;20453;-82
2022/03/07 07:30:52;;;;;;;42.03;21.98;;;8.20;46.20;;;;;;5099085;28;20111;-83
2022/03/07 07:33:18;;;;;;;33.85;19.77;;;8.10;45.20;;;;;;5098459;28;20053;-82
2022/03/07 07:35:44;;;;;;;39.70;21.25;;;8.10;45.40;;;;;;5098715;28;20023;-84
2022/03/07 07:38:10;;;;;;;36.97;19.55;;;8.00;45.90;;;;;;5098830;28;20095;-84
2022/03/07 07:40:36;;;;;;;37.08;20.08;;;7.80;46.00;;;;;;5098841;28;20079;-85
2022/03/07 07:43:01;;;;;;;38.30;20.98;;;7.70;46.20;;;;;;5098292;28;20027;-83
2022/03/07 07:45:27;;;;;;;36.00;20.73;;;7.60;46.40;;;;;;5098409;28;20404;-82
2022/03/07 07:47:53;;;;;;;37.22;20.88;;;7.70;46.10;;;;;;5116414;28;20034;-82
2022/03/07 07:50:20;;;;;;;44.13;24.08;;;7.40;46.70;;;;;;5098799;28;20023;-81
2022/03/07 07:52:46;;;;;;;38.92;20.67;;;7.70;47.00;;;;;;5098357;28;20043;-82
2022/03/07 07:55:12;;;;;;;36.72;20.70;;;8.10;46.30;;;;;;5098152;28;20028;-82
2022/03/07 07:57:39;;;;;;;40.97;21.15;;;8.20;45.80;;;;;;5097894;28;20028;-82
2022/03/07 08:00:07;;;;;;;42.67;22.70;;;8.50;45.70;;;;;;5098380;28;20070;-82
2022/03/07 08:02:33;;;;;;;40.30;23.48;;;8.20;45.40;;;;;;5097995;28;20035;-81
2022/03/07 08:04:59;;;;;;;43.17;21.80;;;8.00;46.20;;;;;;5098581;28;20377;-81
2022/03/07 08:07:25;;;;;;;37.63;20.60;;;8.00;46.50;;;;;;5097698;28;20531;-81
2022/03/07 08:09:52;;;;;;;39.28;21.88;;;8.20;45.80;;;;;;5115980;28;20024;-82
2022/03/07 08:12:18;;;;;;;42.55;21.73;;;7.70;46.60;;;;;;5097801;28;20046;-81
2022/03/07 08:14:45;;;;;;;40.55;21.67;;;8.00;46.70;;;;;;5097875;28;20077;-82
2022/03/07 08:17:11;;;;;;;37.03;21.80;;;8.40;46.00;;;;;;5097355;28;20077;-80
2022/03/07 08:19:38;;;;;;;37.90;21.45;;;8.80;45.50;;;;;;5097679;28;20024;-80
2022/03/07 08:22:04;;;;;;;38.90;22.40;;;8.90;44.80;;;;;;5097800;28;20482;-82
2022/03/07 08:24:30;;;;;;;38.55;21.38;;;8.70;44.70;;;;;;5097509;28;20088;-83
2022/03/07 08:26:57;;;;;;;35.10;19.40;;;8.50;45.70;;;;;;5097519;28;20023;-81
2022/03/07 08:29:23;;;;;;;36.20;19.90;;;8.40;45.30;;;;;;5097208;28;20030;-81
2022/03/07 08:31:49;;;;;;;36.85;20.08;;;8.50;45.40;;;;;;5097389;28;20069;-81
2022/03/07 08:34:15;;;;;;;44.75;21.83;;;8.70;45.50;;;;;;5097220;28;20027;-81
2022/03/07 08:36:41;;;;;;;39.17;21.02;;;8.90;45.40;;;;;;5097161;28;20118;-81
2022/03/07 08:39:06;;;;;;;35.45;20.20;;;8.90;44.80;;;;;;5097041;28;20513;-80
2022/03/07 08:41:34;;;;;;;36.55;20.85;;;8.70;44.90;;;;;;5115437;28;20500;-82
2022/03/07 08:44:00;;;;;;;36.70;20.27;;;8.80;45.00;;;;;;5115306;28;20062;-81
2022/03/07 08:46:26;;;;;;;36.40;21.10;;;9.00;44.50;;;;;;5096991;28;20023;-80
2022/03/07 08:48:52;;;;;;;44.30;25.80;;;9.00;44.60;;;;;;5096944;28;20069;-82
2022/03/07 08:51:18;;;;;;;36.80;22.15;;;8.80;44.90;;;;;;5115061;28;20020;-79
2022/03/07 08:53:43;;;;;;;37.47;22.00;;;8.60;44.60;;;;;;5114758;28;20036;-80
2022/03/07 08:56:10;;;;;;;40.35;21.90;;;8.00;45.10;;;;;;5096849;28;20055;-82
2022/03/07 08:58:36;;;;;;;39.47;21.45;;;8.20;46.00;;;;;;5096739;28;20020;-81
2022/03/07 09:01:02;;;;;;;35.63;20.98;;;8.40;45.40;;;;;;5096651;28;20069;-84
2022/03/07 09:03:27;;;;;;;42.53;21.63;;;8.70;44.90;;;;;;5096779;28;20045;-82
2022/03/07 09:05:53;;;;;;;40.03;21.48;;;8.70;44.40;;;;;;5096846;28;20156;-83
2022/03/07 09:08:18;;;;;;;36.88;21.25;;;9.00;44.80;;;;;;5114815;28;20024;-80
2022/03/07 09:10:44;;;;;;;40.00;20.52;;;9.10;44.30;;;;;;5096643;28;20026;-81
2022/03/07 09:13:10;;;;;;;40.35;21.77;;;8.90;44.70;;;;;;5096541;28;20470;-82
2022/03/07 09:15:36;;;;;;;42.72;22.80;;;8.70;45.30;;;;;;5092448;28;20047;-80
2022/03/07 09:18:01;;;;;;;37.10;21.13;;;8.80;45.60;;;;;;5076040;28;20064;-81
2022/03/07 09:20:27;;;;;;;37.22;21.60;;;8.70;45.30;;;;;;5076060;28;20028;-80
2022/03/07 09:22:53;;;;;;;35.65;19.13;;;8.60;45.50;;;;;;5076088;28;20058;-81
2022/03/07 09:25:19;;;;;;;34.08;19.88;;;8.60;45.50;;;;;;5075839;28;20024;-84
2022/03/07 09:27:45;;;;;;;37.15;20.33;;;8.70;45.40;;;;;;5093983;28;20424;-83
2022/03/07 09:30:13;;;;;;;36.35;22.10;;;8.80;44.50;;;;;;5076043;28;20028;-81
2022/03/07 09:32:39;;;;;;;36.60;20.60;;;9.00;45.10;;;;;;5093811;28;20379;-82
2022/03/07 09:35:05;;;;;;;34.28;20.23;;;9.60;44.00;;;;;;5093943;28;20438;-80
2022/03/07 09:37:31;;;;;;;39.00;21.73;;;9.90;43.60;;;;;;5075992;28;20447;-80
2022/03/07 09:39:57;;;;;;;39.10;21.60;;;9.80;43.20;;;;;;5075694;28;20052;-80
2022/03/07 09:42:22;;;;;;;34.80;19.42;;;9.70;43.00;;;;;;5075008;28;20252;-80
2022/03/07 09:44:49;;;;;;;33.13;20.10;;;9.80;43.40;;;;;;5075598;28;20024;-80
2022/03/07 09:47:15;;;;;;;32.30;20.17;;;9.80;43.60;;;;;;5093564;28;20043;-80
2022/03/07 09:49:41;;;;;;;32.03;19.40;;;10.20;43.70;;;;;;5093458;28;20471;-80
2022/03/07 09:52:07;;;;;;;35.13;19.70;;;10.40;43.10;;;;;;5075330;28;20031;-80
2022/03/07 09:54:33;;;;;;;35.45;19.27;;;10.20;42.40;;;;;;5075383;28;20038;-80
2022/03/07 09:56:58;;;;;;;33.08;19.33;;;10.30;42.90;;;;;;5075498;28;20383;-83
2022/03/07 09:59:25;;;;;;;35.45;19.67;;;10.00;43.00;;;;;;5075357;28;20024;-81
2022/03/07 10:02:02;;;;;;;34.70;19.60;;;10.10;43.10;;;;;;5075695;28;20031;-81
2022/03/07 10:04:30;;;;;;;34.30;19.48;;;10.40;43.00;;;;;;5075511;28;20028;-82
2022/03/07 10:06:55;;;;;;;37.70;20.55;;;10.50;42.20;;;;;;5075246;28;20020;-81
2022/03/07 10:09:23;;;;;;;48.20;28.92;;;10.00;42.90;;;;;;5075254;28;20433;-81
2022/03/07 10:11:56;;;;;;;40.50;22.83;;;9.90;43.50;;;;;;5075199;28;20020;-81
2022/03/07 10:14:32;;;;;;;32.80;19.23;;;10.20;43.30;;;;;;5075268;28;20032;-81
2022/03/07 10:16:58;;;;;;;34.33;18.38;;;10.70;42.30;;;;;;5090285;28;20039;-80
2022/03/07 10:19:24;;;;;;;33.85;19.35;;;10.60;42.10;;;;;;5113671;28;20106;-80
2022/03/07 10:21:52;;;;;;;31.08;18.45;;;10.40;42.00;;;;;;5113713;28;20111;-80
2022/03/07 10:24:30;;;;;;;32.00;18.40;;;9.70;42.70;;;;;;5095029;28;20032;-81
2022/03/07 10:26:55;;;;;;;31.08;18.67;;;9.80;43.30;;;;;;5095362;28;20089;-80
2022/03/07 10:29:21;;;;;;;34.50;19.77;;;9.90;42.90;;;;;;5095161;28;20020;-84
2022/03/07 10:31:48;;;;;;;30.67;17.77;;;9.60;43.20;;;;;;5095658;28;20028;-83
2022/03/07 10:34:14;;;;;;;34.85;19.98;;;9.10;44.00;;;;;;5113366;28;20035;-80
2022/03/07 10:36:45;;;;;;;29.90;17.25;;;9.40;44.10;;;;;;5095121;28;20103;-80
2022/03/07 10:39:13;;;;;;;35.20;19.08;;;9.50;43.90;;;;;;5113494;28;20023;-81
2022/03/07 10:41:43;;;;;;;32.38;18.75;;;9.90;44.40;;;;;;5113481;28;20076;-81
2022/03/07 10:44:25;;;;;;;30.40;18.77;;;10.00;42.90;;;;;;5094747;28;20111;-83
2022/03/07 10:46:50;;;;;;;32.65;18.70;;;10.10;42.90;;;;;;5095116;28;20028;-82
2022/03/07 10:49:20;;;;;;;34.08;19.27;;;10.00;42.60;;;;;;5095300;28;20074;-80
2022/03/07 10:51:55;;;;;;;35.15;19.48;;;9.90;43.40;;;;;;5095101;28;20373;-85
2022/03/07 10:54:22;;;;;;;31.10;17.98;;;10.10;42.90;;;;;;5113594;28;20038;-81
2022/03/07 10:56:52;;;;;;;31.90;17.45;;;10.40;42.30;;;;;;5116905;28;20031;-81
2022/03/07 10:59:25;;;;;;;;;;;10.60;42.50;;;;;;5099323;28;20035;-82
2022/03/07 11:02:02;;;;;;;32.85;18.27;;;10.70;42.20;;;;;;5117157;28;20290;-81
2022/03/07 11:04:27;;;;;;;31.17;17.90;;;10.50;42.00;;;;;;5098950;28;20023;-80
2022/03/07 11:06:53;;;;;;;34.60;19.88;;;10.10;42.10;;;;;;5098914;28;20034;-81
2022/03/07 11:09:19;;;;;;;32.83;18.00;;;9.80;42.90;;;;;;5116796;28;20058;-82
2022/03/07 11:11:45;;;;;;;31.23;17.70;;;9.90;43.00;;;;;;5116915;28;20024;-84
2022/03/07 11:14:12;;;;;;;32.10;17.80;;;10.00;42.60;;;;;;5098908;28;20421;-80
2022/03/07 11:16:39;;;;;;;35.90;20.92;;;10.00;42.50;;;;;;5116475;28;20043;-81
2022/03/07 11:19:06;;;;;;;32.03;18.52;;;10.00;42.30;;;;;;5098616;28;20038;-81
2022/03/07 11:21:34;;;;;;;32.58;19.52;;;10.00;42.70;;;;;;5098489;28;20027;-80
2022/03/07 11:24:00;;;;;;;32.00;18.88;;;10.20;42.50;;;;;;5098074;28;20030;-80
2022/03/07 11:26:27;;;;;;;32.67;19.20;;;10.40;42.30;;;;;;5098739;28;20031;-82
2022/03/07 11:28:52;;;;;;;36.50;18.80;;;10.10;41.90;;;;;;5098803;28;20386;-80
2022/03/07 11:31:23;;;;;;;33.80;18.10;;;9.80;42.10;;;;;;5098605;28;20459;-80
2022/03/07 11:33:50;;;;;;;36.97;20.85;;;9.60;42.70;;;;;;5116331;28;20385;-81
2022/03/07 11:36:19;;;;;;;41.05;23.15;;;9.50;43.40;;;;;;5116381;28;20024;-82
2022/03/07 11:39:28;;;;;;;63.03;35.58;;;9.50;43.70;;;;;;5097900;28;20111;-80
2022/03/07 11:41:53;;;;;;;30.17;17.75;;;9.90;43.10;;;;;;5085918;28;20038;-81
2022/03/07 11:44:22;;;;;;;32.53;18.38;;;10.10;42.30;;;;;;5098044;28;20386;-81
2022/03/07 11:46:51;;;;;;;30.83;18.30;;;10.00;42.80;;;;;;5098233;28;20050;-80
2022/03/07 11:49:26;;;;;;;33.80;18.73;;;10.30;42.50;;;;;;5097852;28;20023;-80
2022/03/07 11:52:18;;;;;;;34.67;20.40;;;10.50;41.90;;;;;;5097728;28;20028;-81
2022/03/07 11:54:52;;;;;;;29.80;17.42;;;10.70;41.50;;;;;;5111264;28;20047;-81
2022/03/07 11:57:30;;;;;;;37.65;24.45;;;10.40;41.20;;;;;;5098003;28;20398;-80
2022/03/07 11:59:55;;;;;;;55.28;32.90;;;10.40;41.80;;;;;;5097626;28;20438;-80
2022/03/07 12:02:21;;;;;;;42.22;26.17;;;10.60;41.30;;;;;;5097952;28;20118;-83
2022/03/07 12:04:47;;;;;;;29.42;17.20;;;10.00;41.10;;;;;;5115411;28;20084;-84
2022/03/07 12:07:26;;;;;;;29.20;15.95;;;10.00;42.20;;;;;;5114979;28;20484;-80
2022/03/07 12:09:51;;;;;;;26.90;15.57;;;10.00;41.10;;;;;;5097575;28;20478;-79
2022/03/07 12:12:20;;;;;;;27.23;15.93;;;9.70;41.30;;;;;;5097596;28;20028;-81
2022/03/07 12:14:47;;;;;;;27.83;17.25;;;9.60;42.10;;;;;;5097258;28;20054;-80
2022/03/07 12:17:26;;;;;;;27.42;16.98;;;9.90;41.50;;;;;;5097267;28;20047;-81
2022/03/07 12:19:59;;;;;;;29.00;17.35;;;9.40;41.40;;;;;;5097251;28;20516;-79
2022/03/07 12:22:27;;;;;;;27.77;16.08;;;9.20;41.10;;;;;;5097001;28;20024;-80
2022/03/07 12:24:56;;;;;;;25.90;16.52;;;9.20;41.90;;;;;;5097316;28;20049;-80
2022/03/07 12:27:25;;;;;;;28.23;15.90;;;9.10;41.90;;;;;;5115174;28;20419;-82
2022/03/07 12:29:51;;;;;;;59.25;37.55;;;8.90;42.10;;;;;;5096662;28;20381;-80
2022/03/07 12:32:17;;;;;;;27.13;16.65;;;9.50;41.70;;;;;;5096909;28;20424;-81
2022/03/07 12:34:44;;;;;;;29.30;17.10;;;9.50;41.70;;;;;;5096711;28;20118;-83